OOCL Nagoya — VRFX8 — position and weather

sailwx.info

Track history (hours):
 
Tides and Currents Weather Stations Pressure Air Temp Water Temp Dewpoint Dewpoint Depression Visibility Wind Speed Wind Dir Waves Ship Positions

OOCL Nagoya

Last reported at 2018-Apr-24 10:23 UTC. Time now 2018-Apr-24 10:44 UTC.
Position N 35°02' E 136°50'.

Length 261 m; draft 9 m.

Type: Cargo ship. MMSI: 477627900.

Date/timePositionNaut miles runAvg speedWind from/ knotsBaromVisibWave heightAir tempDewpointWater temp
2018-Apr-24 10:23N 35°02' E 136°50'0 0.6
2018-Apr-24 10:00N 35°02' E 136°50'3 7.0
2018-Apr-24 09:30N 34°59' E 136°49'714.1
2018-Apr-24 09:01N 34°52' E 136°46'1019.5
2018-Apr-24 08:30N 34°43' E 136°50'1018.9
2018-Apr-24 08:00N 34°36' E 136°58'813.8
2018-Apr-24 07:26N 34°31' E 137°06'5 9.5
2018-Apr-24 06:55N 34°29' E 137°11'410.1
2018-Apr-24 06:30N 34°29' E 137°16'510.1
2018-Apr-24 06:00N 34°29' E 137°22'4012.2
2018-Apr-24 02:43N 34°29' E 138°11'612.8
2018-Apr-24 02:13N 34°29' E 138°19'312.7
2018-Apr-24 01:57N 34°29' E 138°23'612.8
2018-Apr-24 01:29N 34°29' E 138°30'613.1
2018-Apr-24 01:00N 34°29' E 138°38'815.2
2018-Apr-24 00:30N 34°29' E 138°47'1015.0
2018-Apr-23 23:50N 34°32' E 138°58'715.7
2018-Apr-23 23:24N 34°37' E 139°04'915.2
2018-Apr-23 22:49N 34°44' E 139°11'1015.1
2018-Apr-23 22:09N 34°51' E 139°19'214.3
2018-Apr-23 22:00N 34°53' E 139°20'714.7
2018-Apr-23 21:31N 34°57' E 139°27'816.1
2018-Apr-23 21:00N 35°02' E 139°35'816.8
2018-Apr-23 20:30N 35°07' E 139°43'714.5
2018-Apr-23 20:00N 35°14' E 139°46'713.2
2018-Apr-23 19:31N 35°20' E 139°43'815.2
2018-Apr-23 19:00N 35°27' E 139°47'714.3
2018-Apr-23 18:30N 35°33' E 139°50'4 7.3
2018-Apr-23 18:00N 35°36' E 139°47'0 0.1
2018-Apr-23 17:26N 35°36' E 139°47'0 0.0
2018-Apr-23 17:00N 35°36' E 139°47'0 0.0
2018-Apr-23 16:30N 35°36' E 139°47'0 0.0
2018-Apr-23 16:00N 35°36' E 139°47'0 0.0
2018-Apr-23 15:30N 35°36' E 139°47'0 0.0
2018-Apr-23 15:00N 35°36' E 139°47'0 0.0
2018-Apr-23 14:30N 35°36' E 139°47'0 0.0
2018-Apr-23 14:00N 35°36' E 139°47'0 0.0
2018-Apr-23 13:30N 35°36' E 139°47'0 0.0
2018-Apr-23 13:00N 35°36' E 139°47'0 0.0
2018-Apr-23 12:30N 35°36' E 139°47'0 0.0
2018-Apr-23 11:58N 35°36' E 139°47'0 0.0
2018-Apr-23 11:30N 35°36' E 139°47'0 0.0
2018-Apr-23 11:00N 35°36' E 139°47'0 0.0
2018-Apr-23 10:30N 35°36' E 139°47'0 0.0
2018-Apr-23 10:00N 35°36' E 139°47'0 0.0
2018-Apr-23 09:30N 35°36' E 139°47'0 0.0
2018-Apr-23 09:00N 35°36' E 139°47'0 0.0
2018-Apr-23 08:30N 35°36' E 139°47'0 0.0
2018-Apr-23 08:00N 35°36' E 139°47'0 0.0
2018-Apr-23 07:30N 35°36' E 139°47'0 0.0
2018-Apr-23 07:00N 35°36' E 139°47'0 0.0
2018-Apr-23 06:30N 35°36' E 139°47'0 0.0
2018-Apr-23 05:58N 35°36' E 139°47'0 0.0
2018-Apr-23 05:29N 35°36' E 139°47'0 0.0
2018-Apr-23 05:00N 35°36' E 139°47'0 0.0
2018-Apr-23 04:30N 35°36' E 139°47'0 0.0
2018-Apr-23 04:00N 35°36' E 139°47'0 0.4
2018-Apr-23 03:30N 35°36' E 139°47'3 6.6
2018-Apr-23 03:01N 35°34' E 139°50'611.8
2018-Apr-23 02:30N 35°28' E 139°50'714.3
2018-Apr-23 02:00N 35°22' E 139°45'611.0
2018-Apr-23 01:30N 35°16' E 139°46'611.9
2018-Apr-23 01:00N 35°10' E 139°46'4 8.5
2018-Apr-23 00:30N 35°06' E 139°45'612.0
2018-Apr-23 00:00N 35°01' E 139°43'612.0
2018-Apr-22 23:30N 34°55' E 139°40'612.2
2018-Apr-22 23:00N 34°50' E 139°37'612.1
2018-Apr-22 22:30N 34°44' E 139°34'713.1
2018-Apr-22 22:00N 34°39' E 139°29'916.8
2018-Apr-22 21:28N 34°35' E 139°19'817.1
2018-Apr-22 20:59N 34°31' E 139°11'817.0
2018-Apr-22 20:30N 34°27' E 139°02'1116.6
2018-Apr-22 19:52N 34°22' E 138°50'616.1
2018-Apr-22 19:28N 34°19' E 138°43'716.0
2018-Apr-22 19:00N 34°16' E 138°35'815.9
2018-Apr-22 18:29N 34°12' E 138°26'816.0
2018-Apr-22 17:58N 34°09' E 138°17'916.1
2018-Apr-22 17:25N 34°05' E 138°08'715.9
2018-Apr-22 17:00N 34°01' E 138°01'816.3
2018-Apr-22 16:30N 33°58' E 137°52'816.0
2018-Apr-22 16:00N 33°54' E 137°43'916.2
2018-Apr-22 15:27N 33°50' E 137°34'816.8
2018-Apr-22 14:58N 33°47' E 137°25'816.5
2018-Apr-22 14:30N 33°43' E 137°17'2016.2
2018-Apr-22 13:16N 33°34' E 136°56'516.7
2018-Apr-22 13:00N 33°32' E 136°51'3316.4
2018-Apr-22 10:59N 33°17' E 136°16'1716.4
2018-Apr-22 09:56N 33°09' E 135°57'1716.4
2018-Apr-22 08:53N 33°01' E 135°39'715.5
2018-Apr-22 08:25N 32°57' E 135°32'715.7
2018-Apr-22 08:00N 32°54' E 135°25'3317.1
2018-Apr-22 06:04N 32°40' E 134°50'617.2
2018-Apr-22 05:44N 32°37' E 134°44'87319.7
2018-Apr-20 09:25N 24°51' E 120°41'921.3
2018-Apr-20 09:00N 24°44' E 120°34'1021.0
2018-Apr-20 08:31N 24°37' E 120°27'1020.5
2018-Apr-20 08:00N 24°29' E 120°19'1020.1
2018-Apr-20 07:30N 24°20' E 120°13'1219.9
2018-Apr-20 06:53N 24°09' E 120°08'2520.5
2018-Apr-20 05:41N 23°47' E 119°57'421.9
2018-Apr-20 05:30N 23°43' E 119°56'1122.2
2018-Apr-20 05:00N 23°32' E 119°56'1222.1
2018-Apr-20 04:28N 23°20' E 119°56'1821.5
2018-Apr-20 03:37N 23°02' E 119°56'221.0
2018-Apr-20 03:30N 22°60' E 119°57'1120.4
2018-Apr-20 02:59N 22°50' E 120°03'1020.0
2018-Apr-20 02:30N 22°42' E 120°08'1019.0
2018-Apr-20 02:00N 22°34' E 120°13'611.6
2018-Apr-20 01:30N 22°33' E 120°19'1 2.2
2018-Apr-20 01:00N 22°34' E 120°19'0 0.0
2018-Apr-20 00:29N 22°34' E 120°19'0 0.0
2018-Apr-19 23:59N 22°34' E 120°19'0 0.0
2018-Apr-19 23:29N 22°34' E 120°19'0 0.0
2018-Apr-19 22:59N 22°34' E 120°19'0 0.0
2018-Apr-19 22:29N 22°34' E 120°19'0 0.0
2018-Apr-19 21:53N 22°34' E 120°19'0 0.0
2018-Apr-19 21:23N 22°34' E 120°19'0 0.0
2018-Apr-19 20:59N 22°34' E 120°19'0 0.0
2018-Apr-19 20:29N 22°34' E 120°19'0 0.0
2018-Apr-19 19:59N 22°34' E 120°19'0 0.0
2018-Apr-19 19:29N 22°34' E 120°19'0 0.0
2018-Apr-19 18:59N 22°34' E 120°19'0 0.0
2018-Apr-19 18:29N 22°34' E 120°19'0 0.0
2018-Apr-19 17:59N 22°34' E 120°19'0 0.0
2018-Apr-19 17:29N 22°34' E 120°19'0 0.8
2018-Apr-19 17:00N 22°34' E 120°19'3 5.5
2018-Apr-19 16:30N 22°32' E 120°16'2 3.5
2018-Apr-19 16:00N 22°32' E 120°14'4 7.6
2018-Apr-19 15:30N 22°31' E 120°10'3 5.6
2018-Apr-19 15:00N 22°31' E 120°07'0 0.4
2018-Apr-19 14:30N 22°31' E 120°07'3 5.1
2018-Apr-19 14:01N 22°31' E 120°05'815.9
2018-Apr-19 13:31N 22°30' E 119°56'713.5
2018-Apr-19 13:00N 22°29' E 119°49'1414.0
2018-Apr-19 12:01N 22°28' E 119°34'021.0
2018-Apr-19 12:01N 22°28' E 119°34'816.1
2018-Apr-19 11:30N 22°27' E 119°25'816.7
2018-Apr-19 11:00N 22°27' E 119°16'816.5
2018-Apr-19 10:30N 22°26' E 119°07'815.7
2018-Apr-19 10:00N 22°25' E 118°58'815.6
2018-Apr-19 09:30N 22°24' E 118°50'815.4
2018-Apr-19 08:59N 22°23' E 118°41'815.3
2018-Apr-19 08:29N 22°23' E 118°33'715.5
2018-Apr-19 08:00N 22°22' E 118°25'815.8
2018-Apr-19 07:30N 22°21' E 118°17'816.6
2018-Apr-19 07:00N 22°20' E 118°08'816.5
2018-Apr-19 06:30N 22°20' E 117°59'816.5
2018-Apr-19 06:01N 22°19' E 117°50'816.9
2018-Apr-19 05:31N 22°18' E 117°41'816.9
2018-Apr-19 05:00N 22°17' E 117°32'917.0
2018-Apr-19 04:28N 22°17' E 117°22'817.0
2018-Apr-19 04:00N 22°16' E 117°13'1716.9
2018-Apr-19 03:01N 22°14' E 116°56'116.7
2018-Apr-19 02:56N 22°14' E 116°54'  
2018-Apr-14 17:02N 01°15' E 104°07'119.6
2018-Apr-14 16:59N 01°15' E 104°06'918.1
2018-Apr-14 16:30N 01°14' E 103°57'815.2
2018-Apr-14 16:00N 01°12' E 103°50'4 7.8
2018-Apr-14 15:31N 01°14' E 103°47'2 3.1
2018-Apr-14 14:56N 01°16' E 103°47'0 0.0
2018-Apr-14 14:29N 01°16' E 103°47'0 0.0
2018-Apr-14 13:59N 01°16' E 103°47'0 0.0
2018-Apr-14 13:26N 01°16' E 103°47'0 0.0
2018-Apr-14 12:56N 01°16' E 103°47'0 0.0
2018-Apr-14 12:26N 01°16' E 103°47'0 0.0
2018-Apr-14 11:56N 01°16' E 103°47'0 0.0
2018-Apr-14 11:26N 01°16' E 103°47'0 0.0
2018-Apr-14 10:56N 01°16' E 103°47'0 0.0
2018-Apr-14 10:29N 01°16' E 103°47'  
Track history (hours):
 
Tides and Currents Weather Stations Pressure Air Temp Water Temp Dewpoint Dewpoint Depression Visibility Wind Speed Wind Dir Waves Ship Positions

OOCL Nagoya

Last reported at 2018-Apr-24 10:23 UTC. Time now 2018-Apr-24 10:44 UTC.
Position N 35°02' E 136°50'.

Length 261 m; draft 9 m.

Type: Cargo ship. MMSI: 477627900.

Date/timePositionNaut miles runAvg speedWind from/ knotsBaromVisibWave heightAir tempDewpointWater temp
2018-Apr-24 10:23N 35°02' E 136°50'0 0.6
2018-Apr-24 10:00N 35°02' E 136°50'3 7.0
2018-Apr-24 09:30N 34°59' E 136°49'714.1
2018-Apr-24 09:01N 34°52' E 136°46'1019.5
2018-Apr-24 08:30N 34°43' E 136°50'1018.9
2018-Apr-24 08:00N 34°36' E 136°58'813.8
2018-Apr-24 07:26N 34°31' E 137°06'5 9.5
2018-Apr-24 06:55N 34°29' E 137°11'410.1
2018-Apr-24 06:30N 34°29' E 137°16'510.1
2018-Apr-24 06:00N 34°29' E 137°22'4012.2
2018-Apr-24 02:43N 34°29' E 138°11'612.8
2018-Apr-24 02:13N 34°29' E 138°19'312.7
2018-Apr-24 01:57N 34°29' E 138°23'612.8
2018-Apr-24 01:29N 34°29' E 138°30'613.1
2018-Apr-24 01:00N 34°29' E 138°38'815.2
2018-Apr-24 00:30N 34°29' E 138°47'1015.0
2018-Apr-23 23:50N 34°32' E 138°58'715.7
2018-Apr-23 23:24N 34°37' E 139°04'915.2
2018-Apr-23 22:49N 34°44' E 139°11'1015.1
2018-Apr-23 22:09N 34°51' E 139°19'214.3
2018-Apr-23 22:00N 34°53' E 139°20'714.7
2018-Apr-23 21:31N 34°57' E 139°27'816.1
2018-Apr-23 21:00N 35°02' E 139°35'816.8
2018-Apr-23 20:30N 35°07' E 139°43'714.5
2018-Apr-23 20:00N 35°14' E 139°46'713.2
2018-Apr-23 19:31N 35°20' E 139°43'815.2
2018-Apr-23 19:00N 35°27' E 139°47'714.3
2018-Apr-23 18:30N 35°33' E 139°50'4 7.3
2018-Apr-23 18:00N 35°36' E 139°47'0 0.1
2018-Apr-23 17:26N 35°36' E 139°47'0 0.0
2018-Apr-23 17:00N 35°36' E 139°47'0 0.0
2018-Apr-23 16:30N 35°36' E 139°47'0 0.0
2018-Apr-23 16:00N 35°36' E 139°47'0 0.0
2018-Apr-23 15:30N 35°36' E 139°47'0 0.0
2018-Apr-23 15:00N 35°36' E 139°47'0 0.0
2018-Apr-23 14:30N 35°36' E 139°47'0 0.0
2018-Apr-23 14:00N 35°36' E 139°47'0 0.0
2018-Apr-23 13:30N 35°36' E 139°47'0 0.0
2018-Apr-23 13:00N 35°36' E 139°47'0 0.0
2018-Apr-23 12:30N 35°36' E 139°47'0 0.0
2018-Apr-23 11:58N 35°36' E 139°47'0 0.0
2018-Apr-23 11:30N 35°36' E 139°47'0 0.0
2018-Apr-23 11:00N 35°36' E 139°47'0 0.0
2018-Apr-23 10:30N 35°36' E 139°47'0 0.0
2018-Apr-23 10:00N 35°36' E 139°47'0 0.0
2018-Apr-23 09:30N 35°36' E 139°47'0 0.0
2018-Apr-23 09:00N 35°36' E 139°47'0 0.0
2018-Apr-23 08:30N 35°36' E 139°47'0 0.0
2018-Apr-23 08:00N 35°36' E 139°47'0 0.0
2018-Apr-23 07:30N 35°36' E 139°47'0 0.0
2018-Apr-23 07:00N 35°36' E 139°47'0 0.0
2018-Apr-23 06:30N 35°36' E 139°47'0 0.0
2018-Apr-23 05:58N 35°36' E 139°47'0 0.0
2018-Apr-23 05:29N 35°36' E 139°47'0 0.0
2018-Apr-23 05:00N 35°36' E 139°47'0 0.0
2018-Apr-23 04:30N 35°36' E 139°47'0 0.0
2018-Apr-23 04:00N 35°36' E 139°47'0 0.4
2018-Apr-23 03:30N 35°36' E 139°47'3 6.6
2018-Apr-23 03:01N 35°34' E 139°50'611.8
2018-Apr-23 02:30N 35°28' E 139°50'714.3
2018-Apr-23 02:00N 35°22' E 139°45'611.0
2018-Apr-23 01:30N 35°16' E 139°46'611.9
2018-Apr-23 01:00N 35°10' E 139°46'4 8.5
2018-Apr-23 00:30N 35°06' E 139°45'612.0
2018-Apr-23 00:00N 35°01' E 139°43'612.0
2018-Apr-22 23:30N 34°55' E 139°40'612.2
2018-Apr-22 23:00N 34°50' E 139°37'612.1
2018-Apr-22 22:30N 34°44' E 139°34'713.1
2018-Apr-22 22:00N 34°39' E 139°29'916.8
2018-Apr-22 21:28N 34°35' E 139°19'817.1
2018-Apr-22 20:59N 34°31' E 139°11'817.0
2018-Apr-22 20:30N 34°27' E 139°02'1116.6
2018-Apr-22 19:52N 34°22' E 138°50'616.1
2018-Apr-22 19:28N 34°19' E 138°43'716.0
2018-Apr-22 19:00N 34°16' E 138°35'815.9
2018-Apr-22 18:29N 34°12' E 138°26'816.0
2018-Apr-22 17:58N 34°09' E 138°17'916.1
2018-Apr-22 17:25N 34°05' E 138°08'715.9
2018-Apr-22 17:00N 34°01' E 138°01'816.3
2018-Apr-22 16:30N 33°58' E 137°52'816.0
2018-Apr-22 16:00N 33°54' E 137°43'916.2
2018-Apr-22 15:27N 33°50' E 137°34'816.8
2018-Apr-22 14:58N 33°47' E 137°25'816.5
2018-Apr-22 14:30N 33°43' E 137°17'2016.2
2018-Apr-22 13:16N 33°34' E 136°56'516.7
2018-Apr-22 13:00N 33°32' E 136°51'3316.4
2018-Apr-22 10:59N 33°17' E 136°16'1716.4
2018-Apr-22 09:56N 33°09' E 135°57'1716.4
2018-Apr-22 08:53N 33°01' E 135°39'715.5
2018-Apr-22 08:25N 32°57' E 135°32'715.7
2018-Apr-22 08:00N 32°54' E 135°25'3317.1
2018-Apr-22 06:04N 32°40' E 134°50'617.2
2018-Apr-22 05:44N 32°37' E 134°44'87319.7
2018-Apr-20 09:25N 24°51' E 120°41'921.3
2018-Apr-20 09:00N 24°44' E 120°34'1021.0
2018-Apr-20 08:31N 24°37' E 120°27'1020.5
2018-Apr-20 08:00N 24°29' E 120°19'1020.1
2018-Apr-20 07:30N 24°20' E 120°13'1219.9
2018-Apr-20 06:53N 24°09' E 120°08'2520.5
2018-Apr-20 05:41N 23°47' E 119°57'421.9
2018-Apr-20 05:30N 23°43' E 119°56'1122.2
2018-Apr-20 05:00N 23°32' E 119°56'1222.1
2018-Apr-20 04:28N 23°20' E 119°56'1821.5
2018-Apr-20 03:37N 23°02' E 119°56'221.0
2018-Apr-20 03:30N 22°60' E 119°57'1120.4
2018-Apr-20 02:59N 22°50' E 120°03'1020.0
2018-Apr-20 02:30N 22°42' E 120°08'1019.0
2018-Apr-20 02:00N 22°34' E 120°13'611.6
2018-Apr-20 01:30N 22°33' E 120°19'1 2.2
2018-Apr-20 01:00N 22°34' E 120°19'0 0.0
2018-Apr-20 00:29N 22°34' E 120°19'0 0.0
2018-Apr-19 23:59N 22°34' E 120°19'0 0.0
2018-Apr-19 23:29N 22°34' E 120°19'0 0.0
2018-Apr-19 22:59N 22°34' E 120°19'0 0.0
2018-Apr-19 22:29N 22°34' E 120°19'0 0.0
2018-Apr-19 21:53N 22°34' E 120°19'0 0.0
2018-Apr-19 21:23N 22°34' E 120°19'0 0.0
2018-Apr-19 20:59N 22°34' E 120°19'0 0.0
2018-Apr-19 20:29N 22°34' E 120°19'0 0.0
2018-Apr-19 19:59N 22°34' E 120°19'0 0.0
2018-Apr-19 19:29N 22°34' E 120°19'0 0.0
2018-Apr-19 18:59N 22°34' E 120°19'0 0.0
2018-Apr-19 18:29N 22°34' E 120°19'0 0.0
2018-Apr-19 17:59N 22°34' E 120°19'0 0.0
2018-Apr-19 17:29N 22°34' E 120°19'0 0.8
2018-Apr-19 17:00N 22°34' E 120°19'3 5.5
2018-Apr-19 16:30N 22°32' E 120°16'2 3.5
2018-Apr-19 16:00N 22°32' E 120°14'4 7.6
2018-Apr-19 15:30N 22°31' E 120°10'3 5.6
2018-Apr-19 15:00N 22°31' E 120°07'0 0.4
2018-Apr-19 14:30N 22°31' E 120°07'3 5.1
2018-Apr-19 14:01N 22°31' E 120°05'815.9
2018-Apr-19 13:31N 22°30' E 119°56'713.5
2018-Apr-19 13:00N 22°29' E 119°49'1414.0
2018-Apr-19 12:01N 22°28' E 119°34'021.0
2018-Apr-19 12:01N 22°28' E 119°34'816.1
2018-Apr-19 11:30N 22°27' E 119°25'816.7
2018-Apr-19 11:00N 22°27' E 119°16'816.5
2018-Apr-19 10:30N 22°26' E 119°07'815.7
2018-Apr-19 10:00N 22°25' E 118°58'815.6
2018-Apr-19 09:30N 22°24' E 118°50'815.4
2018-Apr-19 08:59N 22°23' E 118°41'815.3
2018-Apr-19 08:29N 22°23' E 118°33'715.5
2018-Apr-19 08:00N 22°22' E 118°25'815.8
2018-Apr-19 07:30N 22°21' E 118°17'816.6
2018-Apr-19 07:00N 22°20' E 118°08'816.5
2018-Apr-19 06:30N 22°20' E 117°59'816.5
2018-Apr-19 06:01N 22°19' E 117°50'816.9
2018-Apr-19 05:31N 22°18' E 117°41'816.9
2018-Apr-19 05:00N 22°17' E 117°32'917.0
2018-Apr-19 04:28N 22°17' E 117°22'817.0
2018-Apr-19 04:00N 22°16' E 117°13'1716.9
2018-Apr-19 03:01N 22°14' E 116°56'116.7
2018-Apr-19 02:56N 22°14' E 116°54'  
2018-Apr-14 17:02N 01°15' E 104°07'119.6
2018-Apr-14 16:59N 01°15' E 104°06'918.1
2018-Apr-14 16:30N 01°14' E 103°57'815.2
2018-Apr-14 16:00N 01°12' E 103°50'4 7.8
2018-Apr-14 15:31N 01°14' E 103°47'2 3.1
2018-Apr-14 14:56N 01°16' E 103°47'0 0.0
2018-Apr-14 14:29N 01°16' E 103°47'0 0.0
2018-Apr-14 13:59N 01°16' E 103°47'0 0.0
2018-Apr-14 13:26N 01°16' E 103°47'0 0.0
2018-Apr-14 12:56N 01°16' E 103°47'0 0.0
2018-Apr-14 12:26N 01°16' E 103°47'0 0.0
2018-Apr-14 11:56N 01°16' E 103°47'0 0.0
2018-Apr-14 11:26N 01°16' E 103°47'0 0.0
2018-Apr-14 10:56N 01°16' E 103°47'0 0.0
2018-Apr-14 10:29N 01°16' E 103°47'  

Dump ship's entire track history